M I D A S
Marine Information and Data Acquisition System
Tripno 2287 of the Zeeleeuw from 2012-04-11 06:49:18 to 2012-04-11 14:26:17
Back to CruiseResearch ActivitiesStationsMapUnderway DataData graphs

EquipmentUnitsComment
TimeDGPSUTC
LatitudeDGPSDM.mWGS84
LongitudeDGPSDM.mWGS84
TemperatureSBE03/SBE38deg celciusITS90
ConductivitySBE21S/mITS90
SalinitySBE21 Practical Salinity Units
ChlorophylAChelsea fluorimeterg/lCalibrated in Aceton
Missing or incorrect values are displayed as -999
Sea surface data collected by the RV Zeeleeuw from 2012-04-11 06:29:50 to 2012-04-11 14:31:55
Time Latitude Longitude Temperature Conductivity Salinity ChlorophylA
2012-04-11 06:30:56 51°13.636 2°56.019 16.2846 3.660617 24.679211 -2.458615
2012-04-11 06:31:56 51°13.637 2°56.019 16.281 3.659271 24.670858 -2.458615
2012-04-11 06:32:55 51°13.637 2°56.019 16.285 3.660721 24.68339 -2.458615
2012-04-11 06:33:55 51°13.636 2°56.02 16.2841 3.658857 24.671169 -2.458615
2012-04-11 06:34:56 51°13.636 2°56.019 16.2923 3.65751 24.662814 -2.458615
2012-04-11 06:35:56 51°13.637 2°56.018 16.2909 3.653679 24.635469 -2.458615
2012-04-11 06:36:55 51°13.636 2°56.019 16.3045 3.651918 24.624019 -2.458615
2012-04-11 06:37:56 51°13.636 2°56.019 16.3058 3.65254 24.63036 -2.458615
2012-04-11 06:38:55 51°13.635 2°56.02 16.3073 3.652436 24.630862 -2.458615
2012-04-11 06:39:55 51°13.635 2°56.02 16.3186 3.650779 24.620609 -2.458615
2012-04-11 06:40:56 51°13.635 2°56.019 16.3206 3.648398 24.60494 -2.458615
2012-04-11 06:41:55 51°13.636 2°56.018 16.3175 3.645498 24.584977 -2.458615
2012-04-11 06:42:56 51°13.635 2°56.018 16.3232 3.64467 24.58091 -2.458615
2012-04-11 06:43:55 51°13.636 2°56.019 16.3171 3.645084 24.586552 -2.458615
2012-04-11 06:44:56 51°13.636 2°56.019 16.3137 3.645188 24.589449 -2.458615
2012-04-11 06:45:56 51°13.636 2°56.019 16.3208 3.644463 24.58658 -2.458615
2012-04-11 06:46:56 51°13.637 2°56.019 16.3306 3.642495 24.574424 -2.458615
2012-04-11 06:47:55 51°13.637 2°56.019 16.3392 3.638871 24.549885 -2.458615
2012-04-11 06:48:55 51°13.637 2°56.019 16.3558 3.636489 24.534631 -2.458615
2012-04-11 06:49:55 51°13.636 2°56.02 16.3605 3.634107 24.519375 -2.458615
2012-04-11 06:50:55 51°13.635 2°56.02 16.3658 3.632244 24.507987 -2.458615
2012-04-11 06:51:55 51°13.634 2°56.019 16.3404 3.636282 24.540715 -2.458615
2012-04-11 06:52:56 51°13.644 2°55.974 16.3625 3.629551 24.492524 -2.458615
2012-04-11 06:53:56 51°13.668 2°55.884 16.3841 3.536156 23.799093 -2.458615
2012-04-11 06:54:55 51°13.71 2°55.789 16.386 3.522904 23.702888 -2.458615
2012-04-11 06:55:55 51°13.768 2°55.699 16.4026 3.514414 23.642565 -2.458615
2012-04-11 06:56:54 51°13.834 2°55.638 16.404 3.503026 23.560276 -2.458615
2012-04-11 06:57:55 51°13.912 2°55.63 16.4044 3.501163 23.549263 -2.458615
2012-04-11 06:58:54 51°13.965 2°55.666 16.4234 3.494227 23.500509 -2.458615
2012-04-11 06:59:55 51°13.978 2°55.659 16.1138 3.482011 23.41128 -2.458615
2012-04-11 07:00:55 51°14.036 2°55.534 16.0258 3.513897 23.651387 -2.458615
2012-04-11 07:01:55 51°14.154 2°55.397 16.1696 3.532015 23.789636 -2.458615
2012-04-11 07:02:54 51°14.286 2°55.275 16.2324 3.517107 23.681841 -2.458615
2012-04-11 07:03:55 51°14.426 2°55.146 16.1492 3.524147 23.735933 -2.458615
2012-04-11 07:04:53 51°14.576 2°55.009 16.1824 3.48843 23.473626 -2.458615
2012-04-11 07:05:52 51°14.737 2°54.819 15.9543 3.513276 23.661087 -2.458615
2012-04-11 07:06:52 51°14.913 2°54.622 16.0497 3.497851 23.549049 -2.458615
2012-04-11 07:07:51 51°15.083 2°54.426 16.0703 3.536467 23.839317 -2.458615
2012-04-11 07:08:52 51°15.25 2°54.204 16.0119 3.567114 24.070974 -2.458615
2012-04-11 07:09:52 51°15.418 2°53.995 15.976 3.551169 23.959386 -2.458615
2012-04-11 07:10:52 51°15.584 2°53.794 15.9685 3.541333 23.884303 -2.458615
2012-04-11 07:11:52 51°15.748 2°53.592 16.0133 3.547235 23.934574 -2.458615
2012-04-11 07:12:51 51°15.918 2°53.406 15.9933 3.545786 23.924165 -2.458615
2012-04-11 07:13:52 51°16.1 2°53.229 15.9623 3.559452 24.031238 -2.458615
2012-04-11 07:14:51 51°16.288 2°53.095 15.9802 3.550134 23.963282 -2.458615
2012-04-11 07:15:51 51°16.479 2°52.953 15.9913 3.5667 24.089998 -2.458615
2012-04-11 07:16:51 51°16.666 2°52.796 15.9491 3.533258 23.843045 -2.458615
2012-04-11 07:17:51 51°16.857 2°52.663 15.9168 3.543819 23.92233 -2.458615
2012-04-11 07:18:52 51°17.055 2°52.537 15.9668 3.480253 23.453773 -2.458615
2012-04-11 07:19:51 51°17.239 2°52.389 15.9918 3.563077 24.074598 -2.458615
2012-04-11 07:20:52 51°17.425 2°52.222 15.9746 3.540299 23.907231 -2.458615
2012-04-11 07:21:52 51°17.612 2°52.067 15.9678 3.58627 24.251499 -2.458615
2012-04-11 07:22:52 51°17.802 2°51.935 15.9892 3.497334 23.592583 -2.458615
2012-04-11 07:23:51 51°17.996 2°51.82 15.942 3.482737 23.484919 -2.458615
2012-04-11 07:24:52 51°18.193 2°51.687 15.9813 3.416385 22.991132 -2.458615
2012-04-11 07:25:52 51°18.379 2°51.53 15.9291 3.469901 23.392865 -2.458615
2012-04-11 07:26:51 51°18.566 2°51.386 15.9284 3.477354 23.452918 -2.458615
2012-04-11 07:27:52 51°18.759 2°51.238 15.9127 3.485015 23.512923 -2.458615
2012-04-11 07:28:51 51°18.95 2°51.105 15.9697 3.455305 23.292572 -2.458615
2012-04-11 07:29:52 51°19.14 2°50.945 15.9151 3.42539 23.071737 -2.458615
2012-04-11 07:30:52 51°19.334 2°50.808 15.9677 3.907775 26.702548 -2.458615
2012-04-11 07:31:52 51°19.526 2°50.666 15.9225 3.906221 26.692147 -2.458615
2012-04-11 07:32:51 51°19.711 2°50.513 15.9355 3.901041 26.657472 -2.458615
2012-04-11 07:33:52 51°19.907 2°50.367 15.9518 3.902802 26.673162 -2.458615
2012-04-11 07:34:51 51°20.098 2°50.233 15.9289 3.900005 26.656105 -2.458615
2012-04-11 07:35:51 51°20.286 2°50.078 16.014 3.731356 25.352276 -2.458615
2012-04-11 07:36:52 51°20.449 2°49.851 15.9372 1.929887 12.246593 -2.458615
2012-04-11 07:37:52 51°20.608 2°49.615 15.9941 1.919052 12.17027 -2.458615
2012-04-11 07:38:52 51°20.776 2°49.394 15.9987 1.784919 11.241965 -2.458615
2012-04-11 07:39:52 51°20.953 2°49.19 15.9843 1.681456 10.546472 -2.458615
2012-04-11 07:40:52 51°21.119 2°48.982 15.9932 1.535427 9.561205 -2.458615
2012-04-11 07:41:51 51°21.272 2°48.774 15.9789 1.337077 8.231339 -2.458615
2012-04-11 07:42:52 51°21.448 2°48.602 15.9944 1.254627 7.691659 -2.458615
2012-04-11 07:43:52 51°21.642 2°48.487 15.9775 1.26854 7.794587 -2.458615
2012-04-11 07:44:52 51°21.844 2°48.387 15.9418 1.189707 7.26696 -2.458615
2012-04-11 07:45:52 51°22.046 2°48.278 15.9694 1.154262 7.038775 -2.458615
2012-04-11 07:46:51 51°22.24 2°48.147 15.9778 1.117686 6.805152 -2.458615
2012-04-11 07:47:52 51°22.444 2°48.03 15.9651 1.032593 6.244169 -2.458615
2012-04-11 07:48:52 51°22.646 2°47.922 15.991 1.01673 6.145895 -2.458615
2012-04-11 07:49:51 51°22.843 2°47.799 15.9743 0.892726 5.346041 -2.458615
2012-04-11 07:50:51 51°23.047 2°47.68 15.963 0.938246 5.640404 -2.458615
2012-04-11 07:51:52 51°23.254 2°47.572 15.9969 0.786565 4.672928 -2.458615
2012-04-11 07:52:52 51°23.455 2°47.446 16.0019 0.863584 5.158786 -2.458615
2012-04-11 07:53:51 51°23.652 2°47.334 15.9937 0.900347 5.401144 -2.458615
2012-04-11 07:54:52 51°23.857 2°47.219 15.9808 0.773386 4.586494 -2.458615
2012-04-11 07:55:52 51°24.06 2°47.11 16.0129 0.598905 3.487205 -2.458615
2012-04-11 07:56:51 51°24.252 2°46.974 16.0234 0.616402 3.602523 -2.458615
2012-04-11 07:57:51 51°24.446 2°46.836 16.0041 0.430863 2.457392 -2.458615
2012-04-11 07:58:52 51°24.646 2°46.7 16.0298 0.391664 2.225233 -2.458615
2012-04-11 07:59:52 51°24.842 2°46.567 16.0107 0.223997 1.231982 -2.458615
2012-04-11 08:00:52 51°25.041 2°46.436 16.0341 0.21721 1.192776 -2.458615
2012-04-11 08:01:52 51°25.239 2°46.299 16.0275 0.203531 1.114162 -2.458615
2012-04-11 08:02:51 51°25.432 2°46.155 16.0313 0.113346 0.602765 -2.458615
2012-04-11 08:03:52 51°25.634 2°46.019 16.0325 0.088155 0.464715 -2.458615
2012-04-11 08:04:52 51°25.831 2°45.89 16.0446 0.090828 0.479489 -2.458615
2012-04-11 08:05:52 51°26.024 2°45.743 16.0347 0.084247 0.443386 -2.458615
2012-04-11 08:06:51 51°26.211 2°45.59 16.0283 0.085276 0.4493 -2.458615
2012-04-11 08:07:52 51°26.406 2°45.437 16.0384 0.074377 0.390051 -2.458615
2012-04-11 08:08:51 51°26.594 2°45.288 16.0695 0.083116 0.43743 -2.458615
2012-04-11 08:09:52 51°26.787 2°45.126 16.0544 0.071498 0.374452 -2.458615
2012-04-11 08:10:52 51°26.975 2°44.961 16.0528 0.067282 0.351566 -2.458615
2012-04-11 08:11:52 51°27.168 2°44.813 16.0582 0.063375 0.330899 -2.458615
2012-04-11 08:12:52 51°27.36 2°44.665 16.0737 0.052477 0.272415 -2.458615
2012-04-11 08:13:51 51°27.548 2°44.511 16.0797 0.048879 0.253334 -2.458615
2012-04-11 08:14:52 51°27.743 2°44.357 16.0637 0.048056 0.249152 -2.458615
2012-04-11 08:15:52 51°27.938 2°44.209 16.0931 0.046514 0.241105 -2.458615
2012-04-11 08:16:52 51°28.132 2°44.057 16.0956 0.043944 0.22762 -2.458615
2012-04-11 08:17:51 51°28.318 2°43.902 16.0934 0.041373 0.214228 -2.458615
2012-04-11 08:18:52 51°28.514 2°43.748 16.1025 0.040448 0.209522 -2.458615
2012-04-11 08:19:52 51°28.705 2°43.592 16.1004 0.040037 0.207424 -2.458615
2012-04-11 08:20:52 51°28.897 2°43.442 16.0482 0.040962 0.212401 -2.458615
2012-04-11 08:21:52 51°29.092 2°43.303 16.0856 0.054431 0.283958 -2.458615
2012-04-11 08:22:51 51°29.284 2°43.161 16.0778 0.060805 0.318181 -2.458615
2012-04-11 08:23:52 51°29.489 2°43.067 16.0747 0.07376 0.388208 -2.458615
2012-04-11 08:24:52 51°29.691 2°43.151 16.0892 0.076536 0.403447 -2.458615
2012-04-11 08:25:51 51°29.884 2°43.261 16.0991 0.055047 0.287308 -2.458615
2012-04-11 08:26:51 51°30.083 2°43.379 16.1286 0.100904 0.537443 -2.458615
2012-04-11 08:27:52 51°30.287 2°43.479 16.1165 0.096277 0.512017 -2.458615
2012-04-11 08:28:52 51°30.487 2°43.563 16.1479 0.066666 0.350133 -2.458615
2012-04-11 08:29:51 51°30.683 2°43.65 16.1438 0.166098 0.904897 -2.458615
2012-04-11 08:30:52 51°30.882 2°43.766 16.1729 0.068208 0.358626 -2.458615
2012-04-11 08:31:51 51°31.074 2°43.866 16.1692 0.062553 0.328041 -2.458615
2012-04-11 08:32:52 51°31.278 2°43.963 16.1868 0.160751 0.874795 -2.458615
2012-04-11 08:33:52 51°31.476 2°44.067 16.1828 0.068002 0.357536 -2.458615
2012-04-11 08:34:51 51°31.668 2°44.174 16.218 0.080135 0.423707 -2.458615
2012-04-11 08:35:52 51°31.869 2°44.271 16.2057 0.068722 0.361595 -2.458615
2012-04-11 08:36:52 51°32.068 2°44.36 16.2277 0.065021 0.341478 -2.458615
2012-04-11 08:37:52 51°32.266 2°44.454 16.2388 0.063992 0.335955 -2.458615
2012-04-11 08:38:51 51°32.457 2°44.556 16.2242 0.062553 0.328375 -2.458615
2012-04-11 08:39:52 51°32.652 2°44.663 16.2453 0.065123 0.342252 -2.458615
2012-04-11 08:40:51 51°32.846 2°44.763 16.2682 0.48694 2.822827 -2.458615
2012-04-11 08:41:52 51°33.048 2°44.852 16.2653 0.081677 0.432492 -2.458615
2012-04-11 08:42:52 51°33.255 2°44.901 16.2558 0.061525 0.322837 -2.458615
2012-04-11 08:43:51 51°33.457 2°44.959 16.2754 0.063787 0.335197 -2.458615
2012-04-11 08:44:52 51°33.669 2°45.023 16.2871 0.068722 0.361868 -2.458615
2012-04-11 08:45:52 51°33.877 2°45.096 16.2993 0.055253 0.289155 -2.458615
2012-04-11 08:46:51 51°34.08 2°45.157 16.2974 0.065535 0.344651 -2.458615
2012-04-11 08:47:51 51°34.278 2°45.266 16.3102 0.076125 0.402256 -2.458615
2012-04-11 08:48:51 51°34.476 2°45.368 16.3087 0.076125 0.402351 -2.458615
2012-04-11 08:49:51 51°34.679 2°45.448 16.3051 0.061833 0.324659 -2.458615
2012-04-11 08:50:51 51°34.879 2°45.531 16.3169 0.083733 0.444109 -2.458615
2012-04-11 08:51:51 51°35.075 2°45.623 16.3395 0.385595 2.204574 -2.458615
2012-04-11 08:52:51 51°35.272 2°45.706 16.3323 0.248887 1.387571 -2.458615
2012-04-11 08:53:51 51°35.464 2°45.811 16.3405 0.077873 0.411995 -2.458615
2012-04-11 08:54:51 51°35.654 2°45.925 16.3506 0.078284 0.414281 -2.458615
2012-04-11 08:55:51 51°35.847 2°46.031 16.3587 0.077873 0.412044 -2.458615
2012-04-11 08:56:51 51°36.039 2°46.131 16.3694 0.098745 0.527114 -2.458615
2012-04-11 08:57:51 51°36.224 2°46.253 16.3734 0.059777 0.313761 -2.458615
2012-04-11 08:58:51 51°36.407 2°46.389 16.387 0.074994 0.396376 -2.458615
2012-04-11 08:59:51 51°36.591 2°46.514 16.3885 0.065637 0.345532 -2.458615
2012-04-11 09:00:51 51°36.786 2°46.617 16.3958 0.067385 0.355027 -2.458615
2012-04-11 09:01:51 51°36.972 2°46.733 16.3983 0.073349 0.387542 -2.458615
2012-04-11 09:02:51 51°37.162 2°46.842 16.4183 0.16219 0.88504 -2.458615
2012-04-11 09:03:51 51°37.354 2°46.958 16.425 0.090108 0.479452 -2.458615
2012-04-11 09:04:51 51°37.54 2°47.08 16.4233 0.06173 0.324386 -2.458615
2012-04-11 09:05:51 51°37.731 2°47.201 16.4438 0.099773 0.533055 -2.458615
2012-04-11 09:06:51 51°37.914 2°47.329 16.4484 0.074274 0.392519 -2.458615
2012-04-11 09:07:51 51°38.104 2°47.444 16.4485 0.080238 0.425224 -2.458615
2012-04-11 09:08:51 51°38.286 2°47.577 16.4585 0.058852 0.308882 -2.458615
2012-04-11 09:09:51 51°38.472 2°47.695 16.4612 0.061114 0.32115 -2.458615
2012-04-11 09:10:51 51°38.659 2°47.813 16.4704 0.070573 0.372462 -2.458615
2012-04-11 09:11:51 51°38.847 2°47.918 16.473 0.070264 0.370707 -2.458615
2012-04-11 09:12:51 51°39.032 2°48.032 16.4659 0.068311 0.360114 -2.458615
2012-04-11 09:13:51 51°39.217 2°48.149 16.4911 0.078284 0.414568 -2.458615
2012-04-11 09:14:51 51°39.397 2°48.268 16.4877 0.062759 0.33001 -2.458615
2012-04-11 09:15:51 51°39.585 2°48.378 16.4928 0.07119 0.375733 -2.458615
2012-04-11 09:16:51 51°39.774 2°48.484 16.5021 0.053711 0.281262 -2.458615
2012-04-11 09:17:51 51°39.957 2°48.582 16.5045 0.080032 0.424211 -2.458615
2012-04-11 09:18:51 51°40.14 2°48.691 16.5009 0.096894 0.517241 -2.458615
2012-04-11 09:19:51 51°40.325 2°48.815 16.5193 0.095558 0.509849 -2.458615
2012-04-11 09:20:51 51°40.512 2°48.929 16.5168 0.063581 0.334551 -2.458615
2012-04-11 09:21:51 51°40.698 2°49.037 16.5286 0.055356 0.290136 -2.458615
2012-04-11 09:22:51 51°40.885 2°49.155 16.527 0.058954 0.309571 -2.458615
2012-04-11 09:23:51 51°41.073 2°49.263 16.5466 0.088257 0.469531 -2.458615
2012-04-11 09:24:51 51°41.261 2°49.372 16.5478 0.078284 0.41461 -2.458615
2012-04-11 09:25:51 51°41.447 2°49.476 16.5412 0.064301 0.338437 -2.458615
2012-04-11 09:26:51 51°41.634 2°49.586 16.55 0.072526 0.383236 -2.458615
2012-04-11 09:27:51 51°41.794 2°49.758 16.5648 0.129901 0.702125 -2.458615
2012-04-11 09:28:51 51°41.965 2°49.765 16.5414 0.053094 0.278015 -2.458615
2012-04-11 09:29:51 51°42.069 2°49.488 16.5454 0.080032 0.424183 -2.458615
2012-04-11 09:30:51 51°42.141 2°49.174 16.5466 0.061628 0.323966 -2.458615
2012-04-11 09:31:51 51°42.127 2°48.837 16.5533 0.051963 0.271969 -2.458615
2012-04-11 09:32:51 51°41.964 2°48.663 16.5521 0.084967 0.451501 -2.458615
2012-04-11 09:33:51 51°41.769 2°48.531 16.5645 0.086921 0.462138 -2.458615
2012-04-11 09:34:51 51°41.573 2°48.396 16.5764 0.066049 0.347984 -2.458615
2012-04-11 09:35:51 51°41.376 2°48.266 16.5797 0.068208 0.359791 -2.458615
2012-04-11 09:36:51 51°41.179 2°48.137 16.5948 0.074583 0.394516 -2.458615
2012-04-11 09:37:51 51°40.98 2°48.009 16.6058 0.091034 0.485014 -2.458615
2012-04-11 09:38:51 51°40.781 2°47.887 16.6056 0.067283 0.354779 -2.458615
2012-04-11 09:39:51 51°40.58 2°47.77 16.6203 0.10512 0.563155 -2.458615
2012-04-11 09:40:51 51°40.378 2°47.654 16.6253 0.228831 1.271612 -2.458615
2012-04-11 09:41:51 51°40.178 2°47.53 16.6338 0.073657 0.389514 -2.458615
2012-04-11 09:42:51 51°39.976 2°47.408 16.6326 0.079723 0.422706 -2.458615
2012-04-11 09:43:51 51°39.775 2°47.284 16.6369 0.063992 0.336936 -2.458615
2012-04-11 09:44:51 51°39.573 2°47.165 16.6392 0.063273 0.332998 -2.458615
2012-04-11 09:45:52 51°39.367 2°47.044 16.6701 0.097923 0.523149 -2.458615
2012-04-11 09:46:51 51°39.168 2°46.924 16.675 0.075816 0.401323 -2.458615
2012-04-11 09:47:52 51°38.962 2°46.816 16.6716 0.079312 0.420457 -2.458615
2012-04-11 09:48:52 51°38.756 2°46.71 16.6828 0.128256 0.693128 -2.458615
2012-04-11 09:49:52 51°38.554 2°46.595 16.6775 0.122395 0.660038 -2.458615
2012-04-11 09:50:51 51°38.355 2°46.482 16.6883 0.066666 0.351493 -2.458615
2012-04-11 09:51:51 51°38.153 2°46.361 16.7009 0.068825 0.36322 -2.458615
2012-04-11 09:52:52 51°37.945 2°46.246 16.709 0.070778 0.373884 -2.458615
2012-04-11 09:53:52 51°37.741 2°46.126 16.7122 0.084453 0.448801 -2.458615
2012-04-11 09:54:52 51°37.544 2°45.983 16.7151 0.092473 0.493118 -2.458615
2012-04-11 09:55:52 51°37.343 2°45.848 16.7318 0.069339 0.366061 -2.458615
2012-04-11 09:56:52 51°37.138 2°45.732 16.7346 0.079929 0.424006 -2.458615
2012-04-11 09:57:52 51°36.935 2°45.599 16.7293 0.066152 0.348759 -2.458615
2012-04-11 09:58:52 51°36.734 2°45.46 16.7441 0.083631 0.444349 -2.458615
2012-04-11 09:59:52 51°36.525 2°45.356 16.7397 0.083836 0.445474 -2.458615
2012-04-11 10:00:52 51°36.321 2°45.228 16.7401 0.071498 0.377878 -2.458615
2012-04-11 10:01:51 51°36.121 2°45.095 16.7487 0.060085 0.315889 -2.458615
2012-04-11 10:02:52 51°35.909 2°44.985 16.7468 0.07119 0.376189 -2.458615
2012-04-11 10:03:51 51°35.706 2°44.867 16.746 0.06173 0.324843 -2.458615
2012-04-11 10:04:52 51°35.499 2°44.726 16.7598 0.068105 0.359413 -2.458615
2012-04-11 10:05:52 51°35.291 2°44.61 16.773 0.077976 0.413361 -2.458615
2012-04-11 10:06:52 51°35.086 2°44.482 16.777 0.080649 0.428052 -2.458615
2012-04-11 10:07:52 51°34.886 2°44.33 16.7766 0.072937 0.385786 -2.458615
2012-04-11 10:08:52 51°34.683 2°44.192 16.7857 0.061422 0.323168 -2.458615
2012-04-11 10:09:52 51°34.475 2°44.073 16.7884 0.065021 0.342735 -2.458615
2012-04-11 10:10:52 51°34.272 2°43.932 16.806 0.0533 0.279428 -2.458615
2012-04-11 10:11:52 51°34.067 2°43.802 16.805 0.068825 0.36341 -2.458615
2012-04-11 10:12:52 51°33.87 2°43.636 16.7966 0.056281 0.29543 -2.458615
2012-04-11 10:13:52 51°33.692 2°43.424 16.8196 0.070573 0.372876 -2.458615
2012-04-11 10:14:52 51°33.593 2°43.112 16.8266 0.054636 0.286609 -2.458615
2012-04-11 10:15:52 51°33.546 2°42.771 16.8363 0.05001 0.261765 -2.458615
2012-04-11 10:16:52 51°33.505 2°42.427 16.8325 0.052374 0.274417 -2.458615
2012-04-11 10:17:52 51°33.46 2°42.118 16.8214 0.050112 0.262363 -2.458615
2012-04-11 10:18:52 51°33.414 2°41.847 16.8339 0.052477 0.275069 -2.458615
2012-04-11 10:19:52 51°33.373 2°41.583 16.8239 0.047439 0.248064 -2.458615
2012-04-11 10:20:52 51°33.39 2°41.324 16.8165 0.056795 0.298258 -2.458615
2012-04-11 10:21:52 51°33.457 2°41.122 16.8375 0.073349 0.388105 -2.458615
2012-04-11 10:22:52 51°33.512 2°41.016 16.8523 0.063684 0.335518 -2.458615
2012-04-11 10:23:52 51°33.539 2°40.943 16.8508 0.057515 0.302182 -2.458615
2012-04-11 10:24:52 51°33.562 2°40.9 16.8362 0.064609 0.340555 -2.458615
2012-04-11 10:25:52 51°33.626 2°40.929 16.8458 0.050318 0.263525 -2.458615
2012-04-11 10:26:52 51°33.778 2°40.985 8.6362 3.751386 27.561034 -2.458615
2012-04-11 10:27:52 51°33.956 2°41.055 8.1599 3.630842 33.985902 -2.458615
2012-04-11 10:28:52 51°34.124 2°41.149 8.0803 3.522126 33.37388 -2.458615
2012-04-11 10:29:52 51°34.287 2°41.263 8.1012 3.511567 33.371592 -2.458615
2012-04-11 10:30:52 51°34.451 2°41.366 8.1137 3.499868 33.27748 -2.458615
2012-04-11 10:31:52 51°34.615 2°41.468 8.0904 3.505977 33.368059 -2.458615
2012-04-11 10:32:52 51°34.781 2°41.568 8.0616 3.509911 33.41837 -2.458615
2012-04-11 10:33:51 51°34.944 2°41.666 8.059 3.508565 33.419796 -2.458615
2012-04-11 10:34:52 51°35.112 2°41.771 8.06 3.508979 33.431148 -2.458615
2012-04-11 10:35:52 51°35.28 2°41.864 8.0701 3.508462 33.451823 -2.458615
2012-04-11 10:36:52 51°35.443 2°41.972 8.063 3.508152 33.452023 -2.458615
2012-04-11 10:37:52 51°35.61 2°42.07 8.0725 3.508152 33.461625 -2.458615
2012-04-11 10:38:52 51°35.775 2°42.175 8.0558 3.506909 33.463303 -2.458615
2012-04-11 10:39:52 51°35.942 2°42.273 8.0397 3.506806 33.468322 -2.458615
2012-04-11 10:40:52 51°36.11 2°42.376 8.0243 3.507634 33.486726 -2.458615
2012-04-11 10:41:52 51°36.275 2°42.479 8.0555 3.507634 33.48935 -2.458615
2012-04-11 10:42:52 51°36.439 2°42.585 8.0218 3.50867 33.500335 -2.458615
2012-04-11 10:43:52 51°36.604 2°42.694 8.0234 3.509291 33.506926 -2.458615
2012-04-11 10:44:52 51°36.77 2°42.791 8.0201 3.50898 33.517641 -2.458615
2012-04-11 10:45:52 51°36.934 2°42.886 8.0092 3.509498 33.527517 -2.458615
2012-04-11 10:46:52 51°37.096 2°42.987 8.0238 3.509809 33.534321 -2.458615
2012-04-11 10:47:52 51°37.257 2°43.089 8.0183 3.509188 33.532986 -2.458615
2012-04-11 10:48:52 51°37.426 2°43.168 8.0034 3.509084 33.537148 -2.458615
2012-04-11 10:49:52 51°37.597 2°43.235 8.0004 3.509705 33.547255 -2.458615
2012-04-11 10:50:52 51°37.771 2°43.308 8.0049 3.510844 33.554965 -2.458615
2012-04-11 10:51:52 51°37.942 2°43.394 8.018 3.511983 33.562672 -2.458615
2012-04-11 10:52:52 51°38.111 2°43.486 8.0139 3.51395 33.574786 -2.458615
2012-04-11 10:53:52 51°38.28 2°43.572 8.0111 3.515607 33.602039 -2.458615
2012-04-11 10:54:52 51°38.449 2°43.654 8.0067 3.516953 33.621612 -2.458615
2012-04-11 10:55:52 51°38.617 2°43.732 7.9995 3.517678 33.638111 -2.458615
2012-04-11 10:56:52 51°38.789 2°43.801 8.0089 3.518506 33.647794 -2.458615
2012-04-11 10:57:52 51°38.962 2°43.873 7.9993 3.519127 33.653516 -2.458615
2012-04-11 10:58:52 51°39.132 2°43.952 8.0101 3.520473 33.666942 -2.458615
2012-04-11 10:59:52 51°39.302 2°44.018 7.9977 3.521508 33.68059 -2.458615
2012-04-11 11:00:52 51°39.471 2°44.085 7.9919 3.521819 33.683892 -2.458615
2012-04-11 11:01:52 51°39.637 2°44.16 7.999 3.525443 33.725065 -2.458615
2012-04-11 11:02:52 51°39.803 2°44.242 7.9935 3.525029 33.719779 -2.458615
2012-04-11 11:03:52 51°39.973 2°44.32 7.9939 3.524718 33.718241 -2.458615
2012-04-11 11:04:52 51°40.141 2°44.389 7.999 3.524614 33.718022 -2.458615
2012-04-11 11:05:52 51°40.31 2°44.459 8.0035 3.524821 33.715813 -2.458615
2012-04-11 11:06:52 51°40.478 2°44.525 8.0015 3.524097 33.705462 -2.458615
2012-04-11 11:07:52 51°40.646 2°44.602 8.0031 3.5242 33.704799 -2.458615
2012-04-11 11:08:52 51°40.81 2°44.696 7.9998 3.523786 33.701278 -2.458615
2012-04-11 11:09:52 51°40.981 2°44.771 8.0032 3.523061 33.697982 -2.458615
2012-04-11 11:10:52 51°41.148 2°44.849 8.0145 3.523993 33.702597 -2.458615
2012-04-11 11:11:52 51°41.315 2°44.933 8.007 3.524614 33.705674 -2.458615
2012-04-11 11:12:52 51°41.484 2°45.011 8.0066 3.524511 33.708982 -2.458615
2012-04-11 11:13:52 51°41.652 2°45.1 8.0002 3.524821 33.714048 -2.458615
2012-04-11 11:14:52 51°41.819 2°45.175 8.0045 3.525132 33.723527 -2.458615
2012-04-11 11:15:52 51°41.983 2°45.272 8.0022 3.526064 33.73167 -2.458615
2012-04-11 11:16:52 51°42.146 2°45.384 7.9983 3.526892 33.742244 -2.458615
2012-04-11 11:17:52 51°42.31 2°45.484 8.0021 3.527721 33.752819 -2.458615
2012-04-11 11:18:52 51°42.473 2°45.594 7.9907 3.528445 33.762294 -2.458615
2012-04-11 11:19:52 51°42.638 2°45.695 7.9827 3.529274 33.778177 -2.458615
2012-04-11 11:20:52 51°42.802 2°45.797 7.9868 3.530205 33.788975 -2.458615
2012-04-11 11:21:52 51°42.965 2°45.899 7.9818 3.531759 33.804615 -2.458615
2012-04-11 11:22:52 51°43.129 2°45.991 7.9866 3.533001 33.820491 -2.458615
2012-04-11 11:23:52 51°43.295 2°45.992 7.9702 3.533622 33.835961 -2.458615
2012-04-11 11:24:52 51°43.418 2°45.753 7.9828 3.532794 33.83246 -2.458615
2012-04-11 11:25:52 51°43.552 2°45.518 7.9719 3.535797 33.859993 -2.458615
2012-04-11 11:26:52 51°43.691 2°45.286 7.9594 3.537453 33.885618 -2.458615
2012-04-11 11:27:52 51°43.827 2°45.058 7.954 3.538799 33.913279 -2.458615
2012-04-11 11:28:52 51°43.963 2°44.823 7.9533 3.541181 33.9431 -2.458615
2012-04-11 11:29:52 51°44.097 2°44.591 7.9529 3.542734 33.962323 -2.458615
2012-04-11 11:30:52 51°44.233 2°44.364 7.9493 3.546047 33.999422 -2.458615
2012-04-11 11:31:52 51°44.292 2°44.069 7.9479 3.546876 34.017171 -2.458615
2012-04-11 11:32:51 51°44.161 2°43.822 7.9411 3.548015 34.030209 -2.458615
2012-04-11 11:33:52 51°43.938 2°43.773 7.952 3.549361 34.039208 -2.458615
2012-04-11 11:34:52 51°43.715 2°43.748 7.9494 3.550914 34.039705 -2.458615
2012-04-11 11:35:52 51°43.494 2°43.668 7.9507 3.550085 34.033552 -2.458615
2012-04-11 11:36:52 51°43.271 2°43.593 7.9452 3.551121 34.050836 -2.458615
2012-04-11 11:37:52 51°43.055 2°43.514 7.9478 3.549878 34.037589 -2.458615
2012-04-11 11:38:52 51°42.842 2°43.439 7.9487 3.548532 34.022347 -2.458615
2012-04-11 11:39:52 51°42.629 2°43.361 7.947 3.547497 34.007743 -2.458615
2012-04-11 11:40:52 51°42.42 2°43.244 7.9497 3.546254 33.992718 -2.458615
2012-04-11 11:41:52 51°42.21 2°43.138 7.9554 3.544701 33.977056 -2.458615
2012-04-11 11:42:52 51°41.996 2°43.044 7.9532 3.543562 33.961358 -2.458615
2012-04-11 11:43:52 51°41.786 2°42.938 7.9663 3.542216 33.944347 -2.458615
2012-04-11 11:44:52 51°41.576 2°42.817 7.9698 3.541181 33.927093 -2.458615
2012-04-11 11:45:52 51°41.365 2°42.707 7.9794 3.539938 33.910305 -2.458615
2012-04-11 11:46:52 51°41.153 2°42.619 7.9791 3.53942 33.89325 -2.458615
2012-04-11 11:47:52 51°40.944 2°42.51 7.9804 3.538178 33.881798 -2.458615
2012-04-11 11:48:52 51°40.734 2°42.397 7.9906 3.537143 33.869001 -2.458615
2012-04-11 11:49:52 51°40.523 2°42.291 7.992 3.536418 33.855081 -2.458615
2012-04-11 11:50:51 51°40.315 2°42.196 7.9886 3.535589 33.845379 -2.458615
2012-04-11 11:51:52 51°40.101 2°42.083 7.9977 3.534761 33.833908 -2.458615
2012-04-11 11:52:52 51°39.892 2°41.967 7.9969 3.533933 33.822438 -2.458615
2012-04-11 11:53:51 51°39.685 2°41.861 7.9973 3.533208 33.813842 -2.458615
2012-04-11 11:54:52 51°39.469 2°41.763 8.0009 3.53269 33.80745 -2.458615
2012-04-11 11:55:52 51°39.258 2°41.655 8.0043 3.532794 33.805012 -2.458615
2012-04-11 11:56:52 51°39.05 2°41.529 8.0092 3.533311 33.807865 -2.458615
2012-04-11 11:57:52 51°38.84 2°41.406 8.0071 3.533726 33.81227 -2.458615
2012-04-11 11:58:52 51°38.628 2°41.305 8.0107 3.53414 33.814021 -2.458615
2012-04-11 11:59:52 51°38.418 2°41.194 8.015 3.53445 33.81467 -2.458615
2012-04-11 12:00:52 51°38.209 2°41.086 8.0119 3.534554 33.814002 -2.458615
2012-04-11 12:01:52 51°38.002 2°40.959 8.0109 3.534554 33.814002 -2.458615
2012-04-11 12:02:52 51°37.794 2°40.86 8.0147 3.534657 33.815103 -2.458615
2012-04-11 12:03:52 51°37.587 2°40.741 8.0132 3.535278 33.817286 -2.458615
2012-04-11 12:04:52 51°37.381 2°40.619 8.0221 3.535382 33.822811 -2.458615
2012-04-11 12:05:51 51°37.177 2°40.522 8.0194 3.536417 33.826743 -2.458615
2012-04-11 12:06:52 51°36.967 2°40.409 8.0293 3.536935 33.830479 -2.458615
2012-04-11 12:07:52 51°36.761 2°40.293 8.0239 3.536935 33.82694 -2.458615
2012-04-11 12:08:52 51°36.553 2°40.202 8.0215 3.536003 33.818801 -2.458615
2012-04-11 12:09:52 51°36.342 2°40.116 8.0226 3.535071 33.811547 -2.458615
2012-04-11 12:10:52 51°36.137 2°40.01 8.0262 3.53445 33.803173 -2.458615
2012-04-11 12:11:52 51°35.931 2°39.903 8.023 3.533829 33.795685 -2.458615
2012-04-11 12:12:52 51°35.721 2°39.825 8.0246 3.532897 33.784895 -2.458615
2012-04-11 12:13:52 51°35.514 2°39.731 8.0226 3.532483 33.781376 -2.458615
2012-04-11 12:14:52 51°35.307 2°39.638 8.0316 3.531551 33.770587 -2.458615
2012-04-11 12:15:52 51°35.104 2°39.525 8.023 3.528859 33.739327 -2.458615
2012-04-11 12:16:52 51°34.898 2°39.422 8.021 3.525132 33.704124 -2.458615
2012-04-11 12:17:52 51°34.689 2°39.344 8.0025 3.522336 33.679702 -2.458615
2012-04-11 12:18:52 51°34.483 2°39.251 8.0049 3.519955 33.66232 -2.458615
2012-04-11 12:19:52 51°34.277 2°39.146 8.005 3.518195 33.647134 -2.458615
2012-04-11 12:20:52 51°34.072 2°39.039 8.0054 3.516332 33.626446 -2.458615
2012-04-11 12:21:52 51°33.863 2°38.955 8.0007 3.514365 33.607298 -2.458615
2012-04-11 12:22:52 51°33.658 2°38.85 7.9966 3.512501 33.587493 -2.458615
2012-04-11 12:23:52 51°33.455 2°38.727 7.9954 3.511259 33.579562 -2.458615
2012-04-11 12:24:52 51°33.249 2°38.622 7.9935 3.510016 33.568994 -2.458615
2012-04-11 12:25:52 51°33.043 2°38.516 7.9985 3.509188 33.558435 -2.458615
2012-04-11 12:26:52 51°32.842 2°38.386 8.0022 3.509084 33.5547 -2.458615
2012-04-11 12:27:52 51°32.637 2°38.277 8.004 3.508877 33.550744 -2.458615
2012-04-11 12:28:52 51°32.429 2°38.178 8.0052 3.508463 33.544588 -2.458615
2012-04-11 12:29:52 51°32.227 2°38.05 8.0037 3.50836 33.544366 -2.458615
2012-04-11 12:30:52 51°32.021 2°37.941 8.0005 3.50867 33.547666 -2.458615
2012-04-11 12:31:52 51°31.815 2°37.829 8.0003 3.508877 33.546355 -2.458615
2012-04-11 12:32:52 51°31.613 2°37.695 8.0025 3.508981 33.550966 -2.458615
2012-04-11 12:33:52 51°31.403 2°37.592 8.0049 3.509291 33.555144 -2.458615
2012-04-11 12:34:52 51°31.191 2°37.509 8.0046 3.510016 33.556699 -2.458615
2012-04-11 12:35:52 51°30.981 2°37.403 8.0017 3.510016 33.558455 -2.458615
2012-04-11 12:36:52 51°30.773 2°37.287 8.0026 3.509706 33.558667 -2.458615
2012-04-11 12:37:52 51°30.56 2°37.2 8.0042 3.509913 33.559111 -2.458615
2012-04-11 12:38:52 51°30.35 2°37.101 8.005 3.509809 33.558011 -2.458615
2012-04-11 12:39:52 51°30.141 2°36.998 8.0073 3.509498 33.551199 -2.458615
2012-04-11 12:40:52 51°29.929 2°36.915 8.0103 3.509084 33.545922 -2.458615
2012-04-11 12:41:51 51°29.721 2°36.828 8.0091 3.50836 33.537345 -2.458615
2012-04-11 12:42:52 51°29.507 2°36.719 8.0132 3.507324 33.524593 -2.458615
2012-04-11 12:43:52 51°29.295 2°36.681 8.0159 3.506289 33.51009 -2.458615
2012-04-11 12:44:52 51°29.114 2°36.823 8.0146 3.506082 33.510521 -2.458615
2012-04-11 12:45:51 51°28.961 2°37.026 8.0129 3.505668 33.506122 -2.458615
2012-04-11 12:46:52 51°28.8 2°37.233 8.0132 3.504218 33.493357 -2.458615
2012-04-11 12:47:52 51°28.647 2°37.436 8.0259 3.500698 33.454223 -2.458615
2012-04-11 12:48:52 51°28.514 2°37.605 8.0192 3.492105 33.34991 -2.458615
2012-04-11 12:49:52 51°28.403 2°37.722 8.007 3.487757 33.309875 -2.458615
2012-04-11 12:50:52 51°28.282 2°37.793 8.005 3.485066 33.290893 -2.458615
2012-04-11 12:51:52 51°28.162 2°37.875 8.0052 3.482477 33.26691 -2.458615
2012-04-11 12:52:52 51°28.039 2°38.005 8.0038 3.4802 33.241872 -2.458615
2012-04-11 12:53:52 51°27.921 2°38.205 8.0053 3.478233 33.221002 -2.458615
2012-04-11 12:54:52 51°27.772 2°38.408 8.0057 3.476162 33.199904 -2.458615
2012-04-11 12:55:52 51°27.622 2°38.618 7.9982 3.473781 33.177248 -2.458615
2012-04-11 12:56:52 51°27.483 2°38.841 8.0017 3.470469 33.143841 -2.458615
2012-04-11 12:57:52 51°27.354 2°39.072 7.9873 3.467156 33.107837 -2.458615
2012-04-11 12:58:52 51°27.221 2°39.301 7.9767 3.463015 33.076904 -2.458615
2012-04-11 12:59:52 51°27.083 2°39.525 7.968 3.45991 33.053478 -2.458615
2012-04-11 13:00:52 51°26.954 2°39.76 7.9792 3.457736 33.035604 -2.458615
2012-04-11 13:01:52 51°26.831 2°40 7.9923 3.457736 33.026956 -2.458615
2012-04-11 13:02:52 51°26.711 2°40.244 7.9968 3.45815 33.020975 -2.458615
2012-04-11 13:03:52 51°26.587 2°40.485 7.9995 3.457839 33.010771 -2.458615
2012-04-11 13:04:52 51°26.461 2°40.72 8.0021 3.4567 32.996972 -2.458615
2012-04-11 13:05:52 51°26.333 2°40.949 8.0056 3.455044 32.977689 -2.458615
2012-04-11 13:06:52 51°26.208 2°41.177 8.0038 3.450799 32.925816 -2.458615
2012-04-11 13:07:52 51°26.087 2°41.408 7.9991 3.442207 32.839953 -2.458615
2012-04-11 13:08:52 51°25.942 2°41.608 7.9904 3.434858 32.763827 -2.458615
2012-04-11 13:09:51 51°25.795 2°41.8 7.9729 3.427819 32.706408 -2.458615
2012-04-11 13:10:52 51°25.643 2°42 7.9694 3.42285 32.669176 -2.458615
2012-04-11 13:11:52 51°25.485 2°42.182 7.9803 3.414052 32.570861 -2.458615
2012-04-11 13:12:52 51°25.329 2°42.367 7.9692 3.408669 32.510469 -2.458615
2012-04-11 13:13:52 51°25.179 2°42.566 7.9677 3.405564 32.486105 -2.458615
2012-04-11 13:14:52 51°25.03 2°42.77 7.9688 3.40339 32.465645 -2.458615
2012-04-11 13:15:52 51°24.874 2°42.964 7.9596 3.401838 32.449209 -2.458615
2012-04-11 13:16:52 51°24.72 2°43.162 7.9673 3.400596 32.441158 -2.458615
2012-04-11 13:17:52 51°24.566 2°43.361 7.9767 3.399457 32.42401 -2.458615
2012-04-11 13:18:52 51°24.42 2°43.573 7.99 3.39956 32.414921 -2.458615
2012-04-11 13:19:52 51°24.27 2°43.776 8.0021 3.399974 32.40573 -2.458615
2012-04-11 13:20:52 51°24.099 2°43.922 8.0713 3.400388 32.395701 -2.458615
2012-04-11 13:21:52 51°23.932 2°44.065 8.2179 3.382066 32.107242 -2.458615
2012-04-11 13:22:52 51°23.774 2°44.225 8.2416 3.362089 31.800014 -2.458615
2012-04-11 13:23:52 51°23.616 2°44.388 8.2364 3.358363 31.746916 -2.458615
2012-04-11 13:24:52 51°23.449 2°44.535 8.2178 3.361985 31.791497 -2.458615
2012-04-11 13:25:52 51°23.285 2°44.694 8.1883 3.362814 31.819184 -2.458615
2012-04-11 13:26:52 51°23.129 2°44.873 8.1838 3.363124 31.843955 -2.458615
2012-04-11 13:27:51 51°22.978 2°45.057 8.1817 3.361779 31.830654 -2.458615
2012-04-11 13:28:52 51°22.814 2°45.233 8.1796 3.360123 31.815747 -2.458615
2012-04-11 13:29:52 51°22.653 2°45.408 8.1658 3.357639 31.791317 -2.458615
2012-04-11 13:30:52 51°22.498 2°45.604 8.1539 3.357743 31.803156 -2.458615
2012-04-11 13:31:51 51°22.341 2°45.791 8.1458 3.356397 31.800606 -2.458615
2012-04-11 13:32:52 51°22.18 2°45.987 8.1527 3.354845 31.785949 -2.458615
2012-04-11 13:33:52 51°22.022 2°46.186 8.161 3.354224 31.775289 -2.458615
2012-04-11 13:34:52 51°21.861 2°46.376 8.1803 3.353292 31.758066 -2.458615
2012-04-11 13:35:52 51°21.705 2°46.578 8.2029 3.353395 31.742636 -2.458615
2012-04-11 13:36:52 51°21.548 2°46.776 8.2226 3.353706 31.723625 -2.458615
2012-04-11 13:37:52 51°21.389 2°46.968 8.2357 3.353498 31.704156 -2.458615
2012-04-11 13:38:51 51°21.241 2°47.175 8.245 3.353395 31.694019 -2.458615
2012-04-11 13:39:52 51°21.089 2°47.389 8.2748 3.353912 31.688749 -2.458615
2012-04-11 13:40:52 51°20.935 2°47.588 8.3177 3.355464 31.672145 -2.458615
2012-04-11 13:41:52 51°20.775 2°47.774 8.3454 3.353083 31.614457 -2.458615
2012-04-11 13:42:52 51°20.619 2°47.972 8.356 3.350185 31.564551 -2.458615
2012-04-11 13:43:52 51°20.467 2°48.179 8.3611 3.346977 31.52125 -2.458615
2012-04-11 13:44:52 51°20.314 2°48.378 8.42 3.342526 31.468273 -2.458615
2012-04-11 13:45:51 51°20.159 2°48.557 8.6291 3.334245 31.280801 -2.458615
2012-04-11 13:46:52 51°20.008 2°48.758 8.6819 3.32762 31.079067 -2.458615
2012-04-11 13:47:52 51°19.861 2°48.962 8.6394 3.327309 31.043227 -2.458615
2012-04-11 13:48:52 51°19.705 2°49.156 8.6278 3.325343 31.056294 -2.458615
2012-04-11 13:49:52 51°19.547 2°49.347 8.6312 3.323687 31.046318 -2.458615
2012-04-11 13:50:52 51°19.401 2°49.565 8.64 3.32286 31.037746 -2.458615
2012-04-11 13:51:52 51°19.256 2°49.788 8.6661 3.324101 31.024352 -2.458615
2012-04-11 13:52:51 51°19.11 2°50.002 8.695 3.327309 31.038458 -2.458615
2012-04-11 13:53:52 51°18.957 2°50.221 8.713 3.329482 31.047418 -2.458615
2012-04-11 13:54:52 51°18.817 2°50.454 8.7505 3.331655 31.041289 -2.458615
2012-04-11 13:55:52 51°18.661 2°50.654 8.7716 3.333414 31.034074 -2.458615
2012-04-11 13:56:52 51°18.508 2°50.854 8.9044 3.332068 30.970365 -2.458615
2012-04-11 13:57:52 51°18.353 2°51.054 8.8651 3.332378 30.905814 -2.458615
2012-04-11 13:58:52 51°18.19 2°51.234 8.9121 3.332068 30.912056 -2.458615
2012-04-11 13:59:52 51°18.031 2°51.425 8.9475 3.334965 30.911189 -2.458615
2012-04-11 14:00:52 51°17.876 2°51.621 9.0009 3.339829 30.928945 -2.458615
2012-04-11 14:01:52 51°17.715 2°51.811 9.0002 3.343658 30.919603 -2.458615
2012-04-11 14:02:52 51°17.563 2°52.01 9.0337 3.344486 30.935145 -2.458615
2012-04-11 14:03:51 51°17.402 2°52.176 9.0599 3.34728 30.934008 -2.458615
2012-04-11 14:04:52 51°17.235 2°52.344 9.049 3.343657 30.878141 -2.458615
2012-04-11 14:05:52 51°17.071 2°52.51 8.9794 3.339414 30.847195 -2.458615
2012-04-11 14:06:52 51°16.896 2°52.642 8.9334 3.33838 30.903091 -2.458615
2012-04-11 14:07:52 51°16.727 2°52.795 8.9403 3.338484 30.927695 -2.458615
2012-04-11 14:08:52 51°16.553 2°52.935 8.9408 3.341382 30.955882 -2.458615
2012-04-11 14:09:52 51°16.377 2°53.068 8.9999 3.343658 30.97376 -2.458615
2012-04-11 14:10:52 51°16.206 2°53.214 9.0728 3.352558 30.999077 -2.458615
2012-04-11 14:11:52 51°16.029 2°53.339 9.1113 3.3686 31.113938 -2.458615
2012-04-11 14:12:51 51°15.86 2°53.48 9.1165 3.384643 31.250647 -2.458615
2012-04-11 14:13:52 51°15.685 2°53.624 9.1086 3.39313 31.338366 -2.458615
2012-04-11 14:14:52 51°15.519 2°53.782 9.1107 3.396857 31.377333 -2.458615
2012-04-11 14:15:52 51°15.362 2°53.966 9.0458 3.391888 31.329599 -2.458615
2012-04-11 14:16:52 51°15.213 2°54.17 9.2912 3.387542 31.326226 -2.458615
2012-04-11 14:17:52 51°15.073 2°54.391 9.4162 3.387335 31.319349 -2.458615
2012-04-11 14:18:52 51°14.93 2°54.603 9.5429 3.387231 31.319079 -2.458615
2012-04-11 14:19:52 51°14.779 2°54.797 9.6586 3.387128 31.315641 -2.458615
2012-04-11 14:20:52 51°14.624 2°54.98 9.7463 3.387541 31.311174 -2.458615
2012-04-11 14:21:51 51°14.458 2°55.113 9.8234 3.389301 31.314168 -2.458615
2012-04-11 14:22:55 51°14.288 2°55.25 9.881 3.392509 31.311439 -2.458615
2012-04-11 14:23:55 51°14.162 2°55.386 9.9852 3.396442 31.309032 -2.458615
2012-04-11 14:24:55 51°14.039 2°55.478 10.0597 3.400892 31.308778 -2.458615
2012-04-11 14:25:55 51°13.943 2°55.546 10.1701 3.405239 31.310632 -2.458615
2012-04-11 14:26:53 51°13.86 2°55.607 10.2585 3.409896 31.320375 -2.458615
2012-04-11 14:27:52 51°13.783 2°55.678 10.3332 3.414347 31.328001 -2.458615
2012-04-11 14:28:52 51°13.717 2°55.778 10.4349 3.418901 31.335107 -2.458615
2012-04-11 14:29:55 51°13.664 2°55.895 10.5673 3.423041 31.34192 -2.458615
2012-04-11 14:30:55 51°13.643 2°55.988 10.6353 3.427078 31.348463 -2.458615